SBW weather

Sibu Airport
Sibu, Sarawak, Malaysia

Public forecast

Using degrees Celsius for public forecast. Weather courtesy of forecast.io.

Current aviation weather report (METAR) for Sibu Airport

Retrieved 2020/08/07 03:00 UTC (50 minutes ago):

WBGS 070300Z 16003KT 090V250 9999 FEW018 30/24 Q1010

Aviation forecast (TAF) for Sibu Airport

Retrieved 2020-08-07 00:00 UTC (4 hours ago):

TAF WBGS 062300Z 0700/0800 12005KT 9999 FEW016 TEMPO 0707/0711 5000 RA SCT014